Time;durP1;ratioP1;P1;durP2;ratioP2;P2;SDS_P1;SDS_P2;PMS_P1;PMS_P2;Temp;Humidity;BMP_temperature;BMP_pressure;BME280_temperature;BME280_humidity;BME280_pressure;Samples;Min_cycle;Max_cycle;Signal;HPM_P1;HPM_P2
2022/12/19 00:01:49;;;;;;;102.77;47.07;;;-2.10;99.90;;;;;;6253601;28;20061;-81
2022/12/19 00:04:51;;;;;;;90.17;45.10;;;-2.10;99.90;;;;;;6253795;28;20125;-80
2022/12/19 00:07:53;;;;;;;83.53;44.40;;;-2.10;99.90;;;;;;6252787;28;20049;-80
2022/12/19 00:10:59;;;;;;;83.00;43.67;;;-2.00;99.90;;;;;;6254676;28;20132;-81
2022/12/19 00:14:00;;;;;;;81.50;41.47;;;-2.10;99.90;;;;;;6253240;28;20056;-80
2022/12/19 00:17:02;;;;;;;93.07;44.30;;;-2.00;99.90;;;;;;6253357;28;20049;-80
2022/12/19 00:20:05;;;;;;;89.37;44.67;;;-2.00;99.90;;;;;;6252058;28;20042;-80
2022/12/19 00:23:06;;;;;;;77.77;43.07;;;-1.90;99.90;;;;;;6255484;28;20049;-81
2022/12/19 00:26:18;;;;;;;87.63;40.93;;;-1.90;99.90;;;;;;6254400;28;20059;-80
2022/12/19 00:29:19;;;;;;;84.30;39.50;;;-1.90;99.90;;;;;;6255423;28;20053;-80
2022/12/19 00:32:21;;;;;;;77.80;42.27;;;-1.90;99.90;;;;;;6253777;28;20072;-80
2022/12/19 00:35:23;;;;;;;86.43;40.37;;;-1.80;99.90;;;;;;6253199;28;20541;-80
2022/12/19 00:38:25;;;;;;;90.57;43.07;;;-1.80;99.90;;;;;;6253263;28;20047;-80
2022/12/19 00:41:30;;;;;;;85.17;42.03;;;-1.80;99.90;;;;;;6253225;28;20053;-80
2022/12/19 00:44:32;;;;;;;80.00;40.43;;;-1.70;99.90;;;;;;6252264;28;20056;-80
2022/12/19 00:47:35;;;;;;;86.70;41.30;;;-1.70;99.90;;;;;;6252795;28;20056;-80
2022/12/19 00:50:36;;;;;;;92.37;42.67;;;-1.70;99.90;;;;;;6252364;28;20048;-80
2022/12/19 00:53:38;;;;;;;83.03;43.37;;;-1.60;99.90;;;;;;6253151;28;20054;-80
2022/12/19 00:56:41;;;;;;;84.57;40.87;;;-1.60;99.90;;;;;;6251693;28;20503;-80
2022/12/19 00:59:43;;;;;;;85.87;42.63;;;-1.50;99.90;;;;;;6251747;28;20049;-80
2022/12/19 01:02:44;;;;;;;92.57;43.20;;;-1.50;99.90;;;;;;6249320;28;20057;-80
2022/12/19 01:05:46;;;;;;;116.70;45.83;;;-1.50;99.90;;;;;;6250324;28;20049;-80
2022/12/19 01:08:48;;;;;;;81.57;40.87;;;-1.50;99.90;;;;;;6248517;28;20061;-80
2022/12/19 01:15:10;;;;;;;92.17;43.70;;;-1.30;99.90;;;;;;6249079;28;20045;-80
2022/12/19 01:18:12;;;;;;;88.97;42.07;;;-1.30;99.90;;;;;;6248416;28;20048;-79
2022/12/19 01:21:14;;;;;;;78.97;39.77;;;-1.40;99.90;;;;;;6250065;28;20050;-80
2022/12/19 01:24:16;;;;;;;84.33;42.17;;;-1.40;99.90;;;;;;6249072;28;20046;-79
2022/12/19 01:27:19;;;;;;;76.07;38.77;;;-1.40;99.90;;;;;;6249542;28;20161;-79
2022/12/19 01:30:20;;;;;;;83.97;43.13;;;-1.50;99.90;;;;;;6250299;28;20161;-80
2022/12/19 01:33:22;;;;;;;81.53;43.70;;;-1.50;99.90;;;;;;6249872;28;20052;-80
2022/12/19 01:36:24;;;;;;;81.87;41.70;;;-1.40;99.90;;;;;;6252900;28;20045;-80
2022/12/19 01:39:26;;;;;;;82.90;38.67;;;-1.40;99.90;;;;;;6250309;28;20041;-80
2022/12/19 01:42:36;;;;;;;84.37;42.97;;;-1.30;99.90;;;;;;6249411;28;20046;-80
2022/12/19 01:45:38;;;;;;;81.50;42.50;;;-1.40;99.90;;;;;;6251366;28;20056;-80
2022/12/19 01:48:44;;;;;;;80.87;41.13;;;-1.30;99.90;;;;;;6248311;28;20049;-80
2022/12/19 01:51:48;;;;;;;84.43;40.40;;;-1.30;99.90;;;;;;6249668;28;20359;-80
2022/12/19 01:54:50;;;;;;;82.60;43.13;;;-1.30;99.90;;;;;;6250106;28;20056;-80
2022/12/19 01:57:54;;;;;;;82.63;43.60;;;-1.20;99.90;;;;;;6248934;28;20518;-78
2022/12/19 02:00:56;;;;;;;84.40;40.47;;;-1.20;99.90;;;;;;6247918;28;20045;-78
2022/12/19 02:03:59;;;;;;;77.80;41.90;;;-1.10;99.90;;;;;;6247254;28;20123;-78
2022/12/19 02:07:04;;;;;;;73.57;41.30;;;-1.10;99.90;;;;;;6247301;28;20045;-78
2022/12/19 02:10:06;;;;;;;82.63;39.90;;;-1.00;99.90;;;;;;6246221;28;20052;-78
2022/12/19 02:13:10;;;;;;;80.47;40.23;;;-1.00;99.90;;;;;;6247326;28;20423;-78
2022/12/19 02:16:21;;;;;;;90.23;41.67;;;-1.00;99.90;;;;;;6247244;28;20521;-78
2022/12/19 02:19:52;;;;;;;99.57;44.13;;;-1.00;99.90;;;;;;6247219;28;20064;-77
2022/12/19 02:23:11;;;;;;;86.87;42.10;;;-0.90;99.90;;;;;;6244395;28;20049;-78
2022/12/19 02:26:32;;;;;;;81.47;40.37;;;-1.00;99.90;;;;;;6247589;28;20832;-78
2022/12/19 02:30:07;;;;;;;74.57;40.63;;;-0.90;99.90;;;;;;6247076;28;20442;-78
2022/12/19 02:33:18;;;;;;;70.67;38.47;;;-0.90;99.90;;;;;;6243999;28;20049;-78
2022/12/19 02:36:26;;;;;;;78.73;41.37;;;-0.90;99.90;;;;;;6247146;28;20056;-78
2022/12/19 02:39:32;;;;;;;69.60;40.47;;;-0.90;99.90;;;;;;6247196;28;20050;-78
2022/12/19 02:42:44;;;;;;;77.50;38.80;;;-0.90;99.90;;;;;;6246831;28;20060;-78
2022/12/19 02:45:47;;;;;;;83.70;42.23;;;-0.90;99.90;;;;;;6252043;28;20054;-78
2022/12/19 02:48:51;;;;;;;77.03;40.47;;;-0.80;99.90;;;;;;6251978;28;20052;-78
2022/12/19 02:51:53;;;;;;;81.53;40.60;;;-0.80;99.90;;;;;;6252500;28;20050;-78
2022/12/19 02:54:58;;;;;;;87.47;44.73;;;-0.80;99.90;;;;;;6253121;28;20045;-78
2022/12/19 02:58:36;;;;;;;89.87;39.87;;;-0.80;99.90;;;;;;6251776;28;20049;-78
2022/12/19 03:01:47;;;;;;;73.90;36.07;;;-0.90;99.90;;;;;;6254310;28;20130;-80
2022/12/19 03:04:58;;;;;;;79.30;38.27;;;-0.80;99.90;;;;;;6253456;28;20049;-80
2022/12/19 03:08:07;;;;;;;83.67;41.90;;;-0.90;99.90;;;;;;6253388;28;20124;-80
2022/12/19 03:11:12;;;;;;;77.17;41.03;;;-0.90;99.90;;;;;;6253409;28;20044;-81
2022/12/19 03:14:18;;;;;;;81.03;43.17;;;-0.90;99.90;;;;;;6257636;28;20049;-80
2022/12/19 03:17:19;;;;;;;84.50;42.33;;;-0.90;99.90;;;;;;6257471;28;20056;-80
2022/12/19 03:20:26;;;;;;;77.67;42.77;;;-0.90;99.90;;;;;;6257370;28;20053;-80
2022/12/19 03:23:29;;;;;;;82.90;40.70;;;-0.90;99.90;;;;;;6257107;28;20045;-80
2022/12/19 03:26:36;;;;;;;74.80;40.60;;;-0.90;99.90;;;;;;6256277;28;20037;-79
2022/12/19 03:29:42;;;;;;;79.93;40.75;;;-0.90;99.90;;;;;;6251003;28;20053;-79
2022/12/19 03:32:46;;;;;;;62.97;35.37;;;-0.90;99.90;;;;;;6251359;28;20050;-79
2022/12/19 03:35:50;;;;;;;85.63;40.73;;;-1.00;99.90;;;;;;6253423;28;20495;-79
2022/12/19 03:38:54;;;;;;;83.07;40.97;;;-1.00;99.90;;;;;;6251420;28;20050;-79
2022/12/19 03:45:23;;;;;;;81.03;42.07;;;-0.90;99.90;;;;;;6252759;28;20045;-79
2022/12/19 03:48:30;;;;;;;81.72;43.20;;;-0.90;99.90;;;;;;6252118;28;20056;-79
2022/12/19 03:51:41;;;;;;;81.65;40.28;;;-0.90;99.90;;;;;;6252522;28;20053;-79
2022/12/19 03:54:51;;;;;;;92.20;44.97;;;-0.80;99.90;;;;;;6253050;28;20049;-79
2022/12/19 03:57:56;;;;;;;92.07;45.43;;;-0.80;99.90;;;;;;6250939;28;20053;-79
2022/12/19 04:01:00;;;;;;;76.77;40.33;;;-0.80;99.90;;;;;;6252547;28;20511;-80
2022/12/19 04:04:04;;;;;;;82.00;41.57;;;-0.80;99.90;;;;;;6251824;28;20075;-78
2022/12/19 04:07:08;;;;;;;79.60;40.93;;;-0.80;99.90;;;;;;6251358;28;20049;-77
2022/12/19 04:10:14;;;;;;;79.70;41.90;;;-0.80;99.90;;;;;;6250877;28;20045;-78
2022/12/19 04:13:20;;;;;;;82.97;41.97;;;-0.80;99.90;;;;;;6252152;28;20048;-77
2022/12/19 04:16:27;;;;;;;81.90;43.00;;;-0.70;99.90;;;;;;6251541;28;20403;-78
2022/12/19 04:19:32;;;;;;;84.05;39.45;;;-0.70;99.90;;;;;;6251539;28;20045;-77
2022/12/19 04:22:38;;;;;;;81.53;42.47;;;-0.60;99.90;;;;;;6250740;28;20061;-77
2022/12/19 04:25:45;;;;;;;77.27;42.53;;;-0.60;99.90;;;;;;6251557;28;20518;-78
2022/12/19 04:28:50;;;;;;;83.93;40.20;;;-0.60;99.90;;;;;;6253819;28;20061;-78
2022/12/19 04:31:53;;;;;;;82.70;41.73;;;-0.60;99.90;;;;;;6250686;28;20048;-78
2022/12/19 04:34:54;;;;;;;88.10;47.00;;;-0.60;99.90;;;;;;6250290;28;20049;-78
2022/12/19 04:37:57;;;;;;;90.30;45.30;;;-0.50;99.90;;;;;;6250114;28;20052;-78
2022/12/19 04:40:59;;;;;;;82.23;42.63;;;-0.50;99.90;;;;;;6250622;28;20048;-78
2022/12/19 04:44:01;;;;;;;77.43;43.80;;;-0.50;99.90;;;;;;6250288;28;20392;-78
2022/12/19 04:47:02;;;;;;;85.13;42.57;;;-0.50;99.90;;;;;;6251620;28;20064;-78
2022/12/19 04:50:05;;;;;;;90.00;42.13;;;-0.50;99.90;;;;;;6250325;28;20053;-78
2022/12/19 04:53:08;;;;;;;96.83;41.30;;;-0.40;99.90;;;;;;6250826;28;20052;-78
2022/12/19 04:56:10;;;;;;;83.70;44.43;;;-0.40;99.90;;;;;;6251367;28;20046;-78
2022/12/19 04:59:12;;;;;;;67.37;38.10;;;-0.40;99.90;;;;;;6252404;28;20056;-78
2022/12/19 05:02:13;;;;;;;77.10;41.97;;;-0.40;99.90;;;;;;6251172;28;20045;-78
2022/12/19 05:05:16;;;;;;;81.93;41.67;;;-0.40;99.90;;;;;;6253003;28;20530;-79
2022/12/19 05:08:19;;;;;;;83.70;44.60;;;-0.40;99.90;;;;;;6252327;28;20139;-79
2022/12/19 05:11:21;;;;;;;86.73;44.70;;;-0.40;99.90;;;;;;6252277;28;20530;-79
2022/12/19 05:14:23;;;;;;;89.33;46.00;;;-0.30;99.90;;;;;;6251227;28;20411;-78
2022/12/19 05:17:25;;;;;;;72.63;41.97;;;-0.30;99.90;;;;;;6251014;28;20053;-78
2022/12/19 05:20:26;;;;;;;75.63;39.27;;;-0.30;99.90;;;;;;6250394;28;20052;-78
2022/12/19 05:23:30;;;;;;;84.33;44.67;;;-0.30;99.90;;;;;;6250855;28;20053;-79
2022/12/19 05:26:31;;;;;;;77.53;39.37;;;-0.30;99.90;;;;;;6251807;28;20045;-79
2022/12/19 05:29:33;;;;;;;82.33;43.20;;;-0.30;99.90;;;;;;6252052;28;20049;-78
2022/12/19 05:32:35;;;;;;;75.33;41.70;;;-0.30;99.90;;;;;;6251115;28;20061;-79
2022/12/19 05:35:38;;;;;;;74.60;42.30;;;-0.40;99.90;;;;;;6250658;28;20064;-78
2022/12/19 05:38:41;;;;;;;77.87;41.93;;;-0.40;99.90;;;;;;6250239;28;20049;-78
2022/12/19 05:41:43;;;;;;;88.03;41.07;;;-0.40;99.90;;;;;;6252569;28;20057;-78
2022/12/19 05:44:44;;;;;;;90.70;43.33;;;-0.30;99.90;;;;;;6251069;28;20133;-78
2022/12/19 05:47:46;;;;;;;80.43;43.03;;;-0.30;99.90;;;;;;6249447;28;20049;-79
2022/12/19 05:50:49;;;;;;;88.20;45.40;;;-0.30;99.90;;;;;;6250303;28;20594;-78
2022/12/19 05:53:52;;;;;;;84.10;47.57;;;-0.20;99.90;;;;;;6250579;28;20049;-79
2022/12/19 05:56:53;;;;;;;78.70;41.17;;;-0.20;99.90;;;;;;6251700;28;20049;-78
2022/12/19 05:59:55;;;;;;;78.83;40.43;;;-0.20;99.90;;;;;;6252247;28;20600;-79
2022/12/19 06:02:57;;;;;;;87.07;44.10;;;-0.10;99.90;;;;;;6252526;28;20049;-79
2022/12/19 06:06:02;;;;;;;76.77;42.97;;;-0.10;99.90;;;;;;6252171;28;20053;-78
2022/12/19 06:09:05;;;;;;;84.93;45.50;;;0.00;99.90;;;;;;6252700;28;20049;-79
2022/12/19 06:12:08;;;;;;;83.80;46.43;;;0.00;99.90;;;;;;6255644;28;20049;-79
2022/12/19 06:15:10;;;;;;;86.87;45.67;;;0.10;99.90;;;;;;6255060;28;20041;-79
2022/12/19 06:18:12;;;;;;;81.13;42.63;;;0.10;99.90;;;;;;6255108;28;20049;-79
2022/12/19 06:21:16;;;;;;;91.37;41.97;;;0.10;99.90;;;;;;6253636;28;20129;-79
2022/12/19 06:24:20;;;;;;;82.70;43.33;;;0.20;99.90;;;;;;6253649;28;20514;-79
2022/12/19 06:27:21;;;;;;;76.30;41.93;;;0.20;99.90;;;;;;6254162;28;20491;-79
2022/12/19 06:30:23;;;;;;;76.93;42.33;;;0.30;99.90;;;;;;6255734;28;20056;-79
2022/12/19 06:33:26;;;;;;;79.83;42.17;;;0.30;99.90;;;;;;6256312;28;20052;-79
2022/12/19 06:36:29;;;;;;;73.83;41.67;;;0.40;99.90;;;;;;6257094;28;20049;-79
2022/12/19 06:39:32;;;;;;;78.77;44.43;;;0.40;99.90;;;;;;6255966;28;20049;-79
2022/12/19 06:42:33;;;;;;;81.33;44.67;;;0.40;99.90;;;;;;6257907;28;20045;-79
2022/12/19 06:45:34;;;;;;;77.77;42.90;;;0.40;99.90;;;;;;6260632;28;20057;-79
2022/12/19 06:48:36;;;;;;;75.00;39.17;;;0.50;99.90;;;;;;6258554;28;20049;-79
2022/12/19 06:51:38;;;;;;;71.53;43.10;;;0.50;99.90;;;;;;6259931;28;20052;-79
2022/12/19 06:54:42;;;;;;;68.17;39.83;;;0.50;99.90;;;;;;6259255;28;20092;-79
2022/12/19 06:57:45;;;;;;;73.57;40.77;;;0.50;99.90;;;;;;6259208;28;20121;-79
2022/12/19 07:00:46;;;;;;;68.77;41.30;;;0.40;99.90;;;;;;6259364;28;20080;-79
2022/12/19 07:03:49;;;;;;;78.10;42.07;;;0.40;99.90;;;;;;6258595;28;20411;-79
2022/12/19 07:06:51;;;;;;;76.13;40.43;;;0.40;99.90;;;;;;6257088;28;20124;-79
2022/12/19 07:09:54;;;;;;;71.03;37.00;;;0.30;99.90;;;;;;6258388;28;20065;-79
2022/12/19 07:12:55;;;;;;;85.07;42.37;;;0.40;99.90;;;;;;6259954;28;20053;-79
2022/12/19 07:16:02;;;;;;;81.50;42.93;;;0.40;99.90;;;;;;6259993;28;20128;-80
2022/12/19 07:19:04;;;;;;;73.40;39.90;;;0.30;99.90;;;;;;6254477;28;20053;-79
2022/12/19 07:22:07;;;;;;;76.17;41.77;;;0.30;99.90;;;;;;6249937;28;20045;-79
2022/12/19 07:25:11;;;;;;;79.37;42.17;;;0.40;99.90;;;;;;6253391;28;20064;-79
2022/12/19 07:28:13;;;;;;;75.87;42.80;;;0.40;99.90;;;;;;6250312;28;20439;-79
2022/12/19 07:31:14;;;;;;;79.40;46.80;;;0.50;99.90;;;;;;6253525;28;20061;-79
2022/12/19 07:34:16;;;;;;;76.17;43.17;;;0.50;99.90;;;;;;6256605;28;20049;-79
2022/12/19 07:37:18;;;;;;;91.27;47.63;;;0.50;99.90;;;;;;6256844;28;20064;-79
2022/12/19 07:40:21;;;;;;;98.07;49.47;;;0.50;99.90;;;;;;6254957;28;20240;-79
2022/12/19 07:43:23;;;;;;;77.53;41.80;;;0.50;99.90;;;;;;6254294;28;20045;-79
2022/12/19 07:46:27;;;;;;;86.13;44.03;;;0.60;99.90;;;;;;6254470;28;20045;-79
2022/12/19 07:49:29;;;;;;;89.93;47.17;;;0.60;99.90;;;;;;6255262;28;20060;-79
2022/12/19 07:52:30;;;;;;;84.70;44.30;;;0.70;99.90;;;;;;6254467;28;20041;-79
2022/12/19 07:55:33;;;;;;;79.07;44.70;;;0.70;99.90;;;;;;6255362;28;20049;-79
2022/12/19 07:58:35;;;;;;;80.25;43.75;;;0.70;99.90;;;;;;6254639;28;20050;-79
2022/12/19 08:01:37;;;;;;;77.18;40.88;;;0.80;99.90;;;;;;6255635;28;20046;-79
2022/12/19 08:04:38;;;;;;;74.15;39.50;;;0.80;99.90;;;;;;6255401;28;20045;-79
2022/12/19 08:07:40;;;;;;;84.70;42.92;;;0.80;99.90;;;;;;6255099;28;20068;-79
2022/12/19 08:10:43;;;;;;;78.15;41.60;;;0.90;99.90;;;;;;6259578;28;20446;-79
2022/12/19 08:13:46;;;;;;;86.13;43.60;;;0.90;99.90;;;;;;6257680;28;20052;-79
2022/12/19 08:16:47;;;;;;;72.40;41.90;;;1.00;99.90;;;;;;6259053;28;20053;-79
2022/12/19 08:19:49;;;;;;;74.30;42.58;;;1.10;99.90;;;;;;6258513;28;20056;-79
2022/12/19 08:22:51;;;;;;;74.43;40.65;;;1.10;99.90;;;;;;6259573;28;20048;-79
2022/12/19 08:26:01;;;;;;;73.25;39.78;;;1.10;99.90;;;;;;6260158;28;20049;-79
2022/12/19 08:29:02;;;;;;;72.88;38.03;;;1.20;99.90;;;;;;6260132;28;20050;-80
2022/12/19 08:32:04;;;;;;;78.53;41.00;;;1.20;99.90;;;;;;6260861;28;20041;-80
2022/12/19 08:35:07;;;;;;;71.47;39.85;;;1.30;99.90;;;;;;6260560;28;20060;-80
2022/12/19 08:38:09;;;;;;;70.32;42.38;;;1.40;99.90;;;;;;6259003;28;20053;-80
2022/12/19 08:41:12;;;;;;;69.57;39.63;;;1.50;99.90;;;;;;6258633;28;20045;-79
2022/12/19 08:44:14;;;;;;;63.67;39.47;;;1.60;99.90;;;;;;6230802;28;20058;-79
2022/12/19 08:47:16;;;;;;;76.00;39.80;;;1.60;99.90;;;;;;6252082;28;20053;-80
2022/12/19 08:50:17;;;;;;;74.60;40.08;;;1.70;99.90;;;;;;6256617;28;20038;-79
2022/12/19 08:53:19;;;;;;;64.28;37.00;;;1.80;99.90;;;;;;6250842;28;20049;-80
2022/12/19 08:56:23;;;;;;;74.13;45.83;;;1.90;99.90;;;;;;6255562;28;20045;-80
2022/12/19 08:59:24;;;;;;;73.95;39.15;;;1.90;99.90;;;;;;6262668;28;20041;-80
2022/12/19 09:02:26;;;;;;;71.35;43.20;;;1.90;99.90;;;;;;6267652;28;20033;-80
2022/12/19 09:05:28;;;;;;;61.58;38.25;;;2.00;99.90;;;;;;6262725;28;20049;-79
2022/12/19 09:08:30;;;;;;;65.68;39.60;;;2.10;99.90;;;;;;6258327;28;20045;-79
2022/12/19 09:11:33;;;;;;;64.38;37.50;;;2.20;99.90;;;;;;6259571;28;20099;-80
2022/12/19 09:14:35;;;;;;;65.25;36.78;;;2.20;99.90;;;;;;6259193;28;20050;-79
2022/12/19 09:17:37;;;;;;;69.63;39.20;;;2.20;99.90;;;;;;6255741;28;20045;-80
2022/12/19 09:20:38;;;;;;;65.93;39.65;;;2.30;99.90;;;;;;6256702;28;20060;-80
2022/12/19 09:23:41;;;;;;;72.05;39.10;;;2.30;99.90;;;;;;6259673;28;20052;-82
2022/12/19 09:26:44;;;;;;;63.97;38.42;;;2.40;99.90;;;;;;6256792;28;20151;-80
2022/12/19 09:29:46;;;;;;;60.55;35.95;;;2.50;99.90;;;;;;6257408;28;20219;-80
2022/12/19 09:32:48;;;;;;;64.18;38.28;;;2.60;99.90;;;;;;6256989;28;20048;-79
2022/12/19 09:35:51;;;;;;;61.00;34.72;;;2.70;99.90;;;;;;6258152;28;20045;-79
2022/12/19 09:38:54;;;;;;;59.72;37.78;;;2.80;99.90;;;;;;6252510;28;20056;-81
2022/12/19 09:42:29;;;;;;;62.90;34.85;;;2.90;99.90;;;;;;6254286;28;20177;-81
2022/12/19 09:45:45;;;;;;;57.45;37.88;;;3.00;99.90;;;;;;6257280;28;20045;-80
2022/12/19 09:48:53;;;;;;;53.20;31.05;;;3.20;99.90;;;;;;6254353;28;20116;-80
2022/12/19 09:51:59;;;;;;;61.10;35.38;;;3.20;99.90;;;;;;6257459;28;20128;-80
2022/12/19 09:55:05;;;;;;;57.83;34.58;;;3.30;99.90;;;;;;6255435;28;20652;-82
2022/12/19 09:58:15;;;;;;;66.10;38.67;;;3.40;99.90;;;;;;6255195;28;20053;-80
2022/12/19 10:01:20;;;;;;;58.10;34.03;;;3.60;99.90;;;;;;6256335;28;20057;-79
2022/12/19 10:04:25;;;;;;;58.72;33.15;;;3.70;99.90;;;;;;6256933;28;20048;-80
2022/12/19 10:07:27;;;;;;;62.88;38.33;;;3.90;99.90;;;;;;6257534;28;20751;-81
2022/12/19 10:10:39;;;;;;;67.72;39.67;;;4.10;99.90;;;;;;6258266;28;20423;-80
2022/12/19 10:13:58;;;;;;;51.30;32.47;;;4.30;99.90;;;;;;6259101;28;20046;-80
2022/12/19 10:17:04;;;;;;;55.53;31.17;;;4.50;99.90;;;;;;6255418;28;20048;-80
2022/12/19 10:20:17;;;;;;;54.15;34.15;;;4.60;99.90;;;;;;6251907;28;20056;-80
2022/12/19 10:23:41;;;;;;;53.08;34.13;;;4.70;99.90;;;;;;6253916;28;20117;-80
2022/12/19 10:26:48;;;;;;;54.13;33.25;;;4.80;99.90;;;;;;6252605;28;20045;-80
2022/12/19 10:30:01;;;;;;;52.78;33.08;;;4.80;99.90;;;;;;6252039;28;20056;-80
2022/12/19 10:33:14;;;;;;;52.38;31.73;;;4.90;99.90;;;;;;6253469;28;20060;-80
2022/12/19 10:36:16;;;;;;;49.42;30.20;;;4.90;99.90;;;;;;6254372;28;20049;-80
2022/12/19 10:39:27;;;;;;;51.20;29.48;;;4.90;99.90;;;;;;6254580;28;20168;-80
2022/12/19 10:42:49;;;;;;;45.58;29.38;;;5.00;99.90;;;;;;6253850;28;20052;-81
2022/12/19 10:45:59;;;;;;;53.15;34.72;;;5.00;99.90;;;;;;6252580;28;20076;-80
2022/12/19 10:49:02;;;;;;;55.17;30.10;;;5.10;99.90;;;;;;6250231;28;20125;-80
2022/12/19 10:52:06;;;;;;;50.58;33.63;;;5.20;99.90;;;;;;6250595;28;20038;-80
2022/12/19 10:55:24;;;;;;;44.22;30.48;;;5.20;99.90;;;;;;6251297;28;20050;-80
2022/12/19 10:58:28;;;;;;;44.97;30.00;;;5.30;99.90;;;;;;6239582;28;20061;-80
2022/12/19 11:01:34;;;;;;;47.53;30.75;;;5.30;99.90;;;;;;6253788;28;20060;-81
2022/12/19 11:04:36;;;;;;;49.03;32.95;;;5.30;99.90;;;;;;6254955;28;20048;-80
2022/12/19 11:07:38;;;;;;;53.35;32.03;;;5.30;99.90;;;;;;6257284;28;20061;-81
2022/12/19 11:10:42;;;;;;;48.55;31.83;;;5.30;99.90;;;;;;6258558;28;20056;-80
2022/12/19 11:13:46;;;;;;;51.92;31.27;;;5.20;99.90;;;;;;6257440;28;20045;-81
2022/12/19 11:16:49;;;;;;;45.67;29.50;;;5.20;99.90;;;;;;6259041;28;20057;-80
2022/12/19 11:19:51;;;;;;;47.13;30.15;;;5.20;99.90;;;;;;6259300;28;20056;-80
2022/12/19 11:22:56;;;;;;;55.38;33.92;;;5.20;99.90;;;;;;6262077;28;20045;-81
2022/12/19 11:26:00;;;;;;;58.85;36.80;;;5.10;99.90;;;;;;6259527;28;20053;-81
2022/12/19 11:29:15;;;;;;;65.75;38.30;;;5.10;99.90;;;;;;6258583;28;20053;-81
2022/12/19 11:32:29;;;;;;;60.88;37.15;;;5.10;99.90;;;;;;6259197;28;20045;-81
2022/12/19 11:35:31;;;;;;;59.13;37.80;;;5.10;99.90;;;;;;6258471;28;20053;-81
2022/12/19 11:38:38;;;;;;;58.08;37.30;;;5.00;99.90;;;;;;6258261;28;20216;-81
2022/12/19 11:41:45;;;;;;;65.80;37.83;;;5.00;99.90;;;;;;6255155;28;20072;-81
2022/12/19 11:44:53;;;;;;;57.75;35.53;;;5.10;99.90;;;;;;6254732;28;20042;-81
2022/12/19 11:48:03;;;;;;;61.45;39.40;;;5.30;99.90;;;;;;6254066;28;20052;-82
2022/12/19 11:51:14;;;;;;;60.50;37.13;;;5.50;99.90;;;;;;6255244;28;20045;-81
2022/12/19 11:54:20;;;;;;;60.45;37.50;;;5.70;99.90;;;;;;6255533;28;20041;-81
2022/12/19 11:57:22;;;;;;;71.35;37.05;;;5.90;99.90;;;;;;6252482;28;20049;-81
2022/12/19 12:00:25;;;;;;;62.22;39.08;;;6.00;99.90;;;;;;6254369;28;20045;-81
2022/12/19 12:03:44;;;;;;;56.65;38.78;;;6.10;99.90;;;;;;6253783;28;20061;-82
2022/12/19 12:06:49;;;;;;;62.78;37.63;;;6.20;99.90;;;;;;6253886;28;20054;-81
2022/12/19 12:09:57;;;;;;;61.97;37.75;;;6.20;99.90;;;;;;6254173;28;20049;-81
2022/12/19 12:13:03;;;;;;;;;;;6.20;99.90;;;;;;6255394;28;20483;-81
2022/12/19 12:16:10;;;;;;;57.70;37.30;;;6.20;99.90;;;;;;6250191;28;20018;-82
2022/12/19 12:19:23;;;;;;;60.15;36.50;;;6.10;99.90;;;;;;6259580;28;20037;-80
2022/12/19 12:22:43;;;;;;;66.40;40.85;;;6.00;99.90;;;;;;6258863;28;20047;-80
2022/12/19 12:25:56;;;;;;;64.43;36.83;;;5.90;99.90;;;;;;6260576;28;20057;-82
2022/12/19 12:29:06;;;;;;;56.95;37.55;;;5.90;99.90;;;;;;6258888;28;20056;-82
2022/12/19 12:32:22;;;;;;;58.97;36.95;;;5.80;99.90;;;;;;6258728;28;20049;-81
2022/12/19 12:35:34;;;;;;;50.45;35.97;;;5.80;99.90;;;;;;6254208;28;20045;-82
2022/12/19 12:38:51;;;;;;;58.30;38.95;;;5.80;99.90;;;;;;6253448;28;20049;-82
2022/12/19 12:42:07;;;;;;;60.42;37.35;;;5.80;99.90;;;;;;6255021;28;20046;-82
2022/12/19 12:45:23;;;;;;;116.97;75.53;;;5.80;99.90;;;;;;6256073;28;20045;-81
2022/12/19 12:48:28;;;;;;;68.68;41.97;;;5.80;99.90;;;;;;6252214;28;20049;-82
2022/12/19 12:51:32;;;;;;;54.50;35.25;;;5.80;99.90;;;;;;6252849;28;20056;-82
2022/12/19 12:54:38;;;;;;;60.75;32.30;;;5.80;99.90;;;;;;6253816;28;20450;-83
2022/12/19 12:57:39;;;;;;;55.92;34.13;;;5.80;99.90;;;;;;6251859;28;20128;-83
2022/12/19 13:01:09;;;;;;;58.60;35.67;;;5.80;99.90;;;;;;6254197;28;20545;-81
2022/12/19 13:04:24;;;;;;;59.97;33.35;;;5.80;99.90;;;;;;6254600;28;20041;-81
2022/12/19 13:07:30;;;;;;;58.00;35.45;;;5.70;99.90;;;;;;6252972;28;20050;-82
2022/12/19 13:10:32;;;;;;;55.33;36.83;;;5.70;99.90;;;;;;6260028;28;20049;-82
2022/12/19 13:13:52;;;;;;;70.07;42.83;;;5.60;99.90;;;;;;6253190;28;20050;-81
2022/12/19 13:16:55;;;;;;;68.75;39.38;;;5.60;99.90;;;;;;6252139;28;20116;-81
2022/12/19 13:20:14;;;;;;;60.03;37.83;;;5.50;99.90;;;;;;6254765;28;20045;-81
2022/12/19 13:23:44;;;;;;;60.47;39.33;;;5.50;99.90;;;;;;6252407;28;20435;-80
2022/12/19 13:26:51;;;;;;;56.17;35.83;;;5.50;99.90;;;;;;6251237;28;20049;-81
2022/12/19 13:30:02;;;;;;;76.97;53.85;;;5.40;99.90;;;;;;6252623;28;20111;-80
2022/12/19 13:33:10;;;;;;;71.22;45.15;;;5.30;99.90;;;;;;6253540;28;20135;-82
2022/12/19 13:36:26;;;;;;;;;;;5.30;99.90;;;;;;6251437;28;20422;-81
2022/12/19 13:39:31;;;;;;;60.60;39.40;;;5.30;99.90;;;;;;6251303;28;19924;-81
2022/12/19 13:45:56;;;;;;;61.65;38.78;;;5.20;99.90;;;;;;6252457;28;20053;-82
2022/12/19 13:49:03;;;;;;;49.67;36.53;;;5.20;99.90;;;;;;6253007;28;20053;-82
2022/12/19 13:52:07;;;;;;;55.17;36.13;;;5.10;99.90;;;;;;6251483;28;20415;-82
2022/12/19 13:55:13;;;;;;;48.88;30.48;;;5.10;99.90;;;;;;6251041;28;20537;-83
2022/12/19 13:58:27;;;;;;;51.28;32.38;;;5.10;99.90;;;;;;6250059;28;20099;-81
2022/12/19 14:01:31;;;;;;;54.42;36.05;;;5.00;99.90;;;;;;6253705;28;20058;-82
2022/12/19 14:04:44;;;;;;;77.90;43.45;;;4.90;99.90;;;;;;6256079;28;20069;-81
2022/12/19 14:07:46;;;;;;;163.75;81.25;;;4.90;99.90;;;;;;6228650;28;20042;-81
2022/12/19 14:10:51;;;;;;;70.40;42.05;;;4.90;99.90;;;;;;6238586;28;20054;-84
2022/12/19 14:17:17;;;;;;;48.97;31.83;;;4.90;99.90;;;;;;6261869;28;20046;-82
2022/12/19 14:20:23;;;;;;;51.33;32.50;;;4.80;99.90;;;;;;6258775;28;20520;-82
2022/12/19 14:23:24;;;;;;;48.40;30.23;;;4.80;99.90;;;;;;6256073;28;20052;-81
2022/12/19 14:26:29;;;;;;;56.67;33.65;;;4.70;99.90;;;;;;6254162;28;20037;-81
2022/12/19 14:29:38;;;;;;;52.85;31.48;;;4.70;99.90;;;;;;6255975;28;20459;-83
2022/12/19 14:32:41;;;;;;;52.65;33.00;;;4.70;99.90;;;;;;6259021;28;20083;-81
2022/12/19 14:35:48;;;;;;;54.95;32.58;;;4.70;99.90;;;;;;6265041;28;20058;-82
2022/12/19 14:38:50;;;;;;;48.00;30.92;;;4.60;99.90;;;;;;6255757;28;20049;-81
2022/12/19 14:45:35;;;;;;;53.75;31.40;;;4.60;99.90;;;;;;6256478;28;20046;-82
2022/12/19 14:48:47;;;;;;;44.45;30.55;;;4.50;99.90;;;;;;6260285;28;20054;-82
2022/12/19 14:51:50;;;;;;;55.00;33.13;;;4.40;99.90;;;;;;6256504;28;20053;-82
2022/12/19 14:55:13;;;;;;;47.33;31.98;;;4.30;99.90;;;;;;6255725;28;20056;-81
2022/12/19 14:58:19;;;;;;;50.50;31.60;;;4.20;99.90;;;;;;6254108;28;20529;-81
2022/12/19 15:01:25;;;;;;;52.65;32.75;;;4.10;99.90;;;;;;6256956;28;20057;-81
2022/12/19 15:04:32;;;;;;;47.13;32.13;;;4.10;99.90;;;;;;6252627;28;20051;-81
2022/12/19 15:07:35;;;;;;;50.83;33.53;;;3.90;99.90;;;;;;6248288;28;20060;-80
2022/12/19 15:10:38;;;;;;;59.33;33.47;;;3.80;99.90;;;;;;6249215;28;20058;-81
2022/12/19 15:13:50;;;;;;;58.40;34.50;;;3.80;99.90;;;;;;6254719;28;20261;-81
2022/12/19 15:17:03;;;;;;;56.13;31.92;;;3.70;99.90;;;;;;6253921;28;20079;-81
2022/12/19 15:20:08;;;;;;;51.97;32.50;;;3.60;99.90;;;;;;6257955;28;20049;-82
2022/12/19 15:23:12;;;;;;;51.78;31.90;;;3.50;99.90;;;;;;6256530;28;20061;-81
2022/12/19 15:26:16;;;;;;;50.75;32.78;;;3.40;99.90;;;;;;6255637;28;20046;-81
2022/12/19 15:29:18;;;;;;;51.33;31.50;;;3.30;99.90;;;;;;6257608;28;20057;-80
2022/12/19 15:32:19;;;;;;;59.67;36.30;;;3.20;99.90;;;;;;6257478;28;20052;-80
2022/12/19 15:35:21;;;;;;;63.13;42.35;;;3.80;99.90;;;;;;6260034;28;20056;-80
2022/12/19 15:38:24;;;;;;;55.08;34.53;;;4.80;99.90;;;;;;6257697;28;20057;-81
2022/12/19 15:41:26;;;;;;;51.45;32.35;;;5.10;99.90;;;;;;6256806;28;20057;-82
2022/12/19 15:44:32;;;;;;;45.13;27.02;;;5.00;99.90;;;;;;6257737;28;20061;-81
2022/12/19 15:47:37;;;;;;;50.35;32.28;;;4.50;99.90;;;;;;6258185;28;20053;-79
2022/12/19 15:50:38;;;;;;;46.20;26.83;;;4.00;99.90;;;;;;6259177;28;20057;-80
2022/12/19 15:53:42;;;;;;;47.47;29.60;;;3.60;99.90;;;;;;6262807;28;20068;-80
2022/12/19 15:56:47;;;;;;;46.47;30.77;;;3.30;99.90;;;;;;6261938;28;20050;-80
2022/12/19 15:59:49;;;;;;;53.10;31.58;;;2.90;99.90;;;;;;6263111;28;20045;-80
2022/12/19 16:02:53;;;;;;;52.58;33.28;;;2.80;99.90;;;;;;6263562;28;20049;-80
2022/12/19 16:05:56;;;;;;;56.25;31.88;;;2.70;99.90;;;;;;6264892;28;20056;-80